sensor_id;sensor_type;location;lat;lon;timestamp;temperature;humidity
2459;DHT22;1241;50.920;6.936;2023-04-15T00:01:24;9.40;99.90
2459;DHT22;1241;50.920;6.936;2023-04-15T00:03:51;9.30;99.90
2459;DHT22;1241;50.920;6.936;2023-04-15T00:06:20;9.30;99.90
2459;DHT22;1241;50.920;6.936;2023-04-15T00:08:47;9.30;99.90
2459;DHT22;1241;50.920;6.936;2023-04-15T00:11:13;9.20;99.90
2459;DHT22;1241;50.920;6.936;2023-04-15T00:13:39;9.20;99.90
2459;DHT22;1241;50.920;6.936;2023-04-15T00:16:06;9.20;99.90
2459;DHT22;1241;50.920;6.936;2023-04-15T00:18:33;9.10;99.90
2459;DHT22;1241;50.920;6.936;2023-04-15T00:20:59;9.10;99.90
2459;DHT22;1241;50.920;6.936;2023-04-15T00:23:24;9.10;99.90
2459;DHT22;1241;50.920;6.936;2023-04-15T00:25:51;9.10;99.90
2459;DHT22;1241;50.920;6.936;2023-04-15T00:28:17;9.10;99.90
2459;DHT22;1241;50.920;6.936;2023-04-15T00:30:43;9.10;99.90
2459;DHT22;1241;50.920;6.936;2023-04-15T00:33:09;9.20;99.90
2459;DHT22;1241;50.920;6.936;2023-04-15T00:35:35;9.10;99.90
2459;DHT22;1241;50.920;6.936;2023-04-15T00:38:03;9.10;99.90
2459;DHT22;1241;50.920;6.936;2023-04-15T00:40:29;9.10;99.90
2459;DHT22;1241;50.920;6.936;2023-04-15T00:42:55;9.10;99.90
2459;DHT22;1241;50.920;6.936;2023-04-15T00:45:21;9.10;99.90
2459;DHT22;1241;50.920;6.936;2023-04-15T00:47:47;9.10;99.90
2459;DHT22;1241;50.920;6.936;2023-04-15T00:50:13;9.00;99.90
2459;DHT22;1241;50.920;6.936;2023-04-15T00:52:39;9.00;99.90
2459;DHT22;1241;50.920;6.936;2023-04-15T00:55:06;9.00;99.90
2459;DHT22;1241;50.920;6.936;2023-04-15T00:57:32;8.90;99.90
2459;DHT22;1241;50.920;6.936;2023-04-15T00:59:59;8.90;99.90
2459;DHT22;1241;50.920;6.936;2023-04-15T01:02:25;8.80;99.90
2459;DHT22;1241;50.920;6.936;2023-04-15T01:04:51;8.80;99.90
2459;DHT22;1241;50.920;6.936;2023-04-15T01:07:17;8.80;99.90
2459;DHT22;1241;50.920;6.936;2023-04-15T01:09:43;8.70;99.90
2459;DHT22;1241;50.920;6.936;2023-04-15T01:12:12;8.70;99.90
2459;DHT22;1241;50.920;6.936;2023-04-15T01:14:40;8.70;99.90
2459;DHT22;1241;50.920;6.936;2023-04-15T01:17:05;8.60;99.90
2459;DHT22;1241;50.920;6.936;2023-04-15T01:19:32;8.60;99.90
2459;DHT22;1241;50.920;6.936;2023-04-15T01:21:58;8.50;99.90
2459;DHT22;1241;50.920;6.936;2023-04-15T01:24:25;8.50;99.90
2459;DHT22;1241;50.920;6.936;2023-04-15T01:26:53;8.50;99.90
2459;DHT22;1241;50.920;6.936;2023-04-15T01:29:19;8.50;99.90
2459;DHT22;1241;50.920;6.936;2023-04-15T01:31:51;8.50;99.90
2459;DHT22;1241;50.920;6.936;2023-04-15T01:34:17;8.40;99.90
2459;DHT22;1241;50.920;6.936;2023-04-15T01:36:43;8.40;99.90
2459;DHT22;1241;50.920;6.936;2023-04-15T01:39:09;8.40;99.90
2459;DHT22;1241;50.920;6.936;2023-04-15T01:41:35;8.40;99.90
2459;DHT22;1241;50.920;6.936;2023-04-15T01:44:01;8.30;99.90
2459;DHT22;1241;50.920;6.936;2023-04-15T01:46:26;8.30;99.90
2459;DHT22;1241;50.920;6.936;2023-04-15T01:48:52;8.20;99.90
2459;DHT22;1241;50.920;6.936;2023-04-15T01:51:18;8.20;99.90
2459;DHT22;1241;50.920;6.936;2023-04-15T01:53:44;8.20;99.90
2459;DHT22;1241;50.920;6.936;2023-04-15T01:56:10;8.20;99.90
2459;DHT22;1241;50.920;6.936;2023-04-15T01:58:36;8.00;99.90
2459;DHT22;1241;50.920;6.936;2023-04-15T02:01:02;7.90;99.90
2459;DHT22;1241;50.920;6.936;2023-04-15T02:03:30;7.90;99.90
2459;DHT22;1241;50.920;6.936;2023-04-15T02:05:56;7.90;99.90
2459;DHT22;1241;50.920;6.936;2023-04-15T02:08:22;7.90;99.90
2459;DHT22;1241;50.920;6.936;2023-04-15T02:10:48;7.90;99.90
2459;DHT22;1241;50.920;6.936;2023-04-15T02:13:13;7.90;99.90
2459;DHT22;1241;50.920;6.936;2023-04-15T02:15:39;7.90;99.90
2459;DHT22;1241;50.920;6.936;2023-04-15T02:18:05;7.90;99.90
2459;DHT22;1241;50.920;6.936;2023-04-15T02:20:31;7.90;99.90
2459;DHT22;1241;50.920;6.936;2023-04-15T02:22:57;7.80;99.90
2459;DHT22;1241;50.920;6.936;2023-04-15T02:25:23;7.80;99.90
2459;DHT22;1241;50.920;6.936;2023-04-15T02:27:48;7.90;99.90
2459;DHT22;1241;50.920;6.936;2023-04-15T02:30:15;7.80;99.90
2459;DHT22;1241;50.920;6.936;2023-04-15T02:32:41;7.80;99.90
2459;DHT22;1241;50.920;6.936;2023-04-15T02:35:09;7.80;99.90
2459;DHT22;1241;50.920;6.936;2023-04-15T02:37:36;7.80;99.90
2459;DHT22;1241;50.920;6.936;2023-04-15T02:40:08;7.70;99.90
2459;DHT22;1241;50.920;6.936;2023-04-15T02:42:34;7.70;99.90
2459;DHT22;1241;50.920;6.936;2023-04-15T02:45:00;7.70;99.90
2459;DHT22;1241;50.920;6.936;2023-04-15T02:47:30;7.60;99.90
2459;DHT22;1241;50.920;6.936;2023-04-15T02:49:56;7.60;99.90
2459;DHT22;1241;50.920;6.936;2023-04-15T02:52:25;7.60;99.90
2459;DHT22;1241;50.920;6.936;2023-04-15T02:54:50;7.60;99.90
2459;DHT22;1241;50.920;6.936;2023-04-15T02:57:16;7.60;99.90
2459;DHT22;1241;50.920;6.936;2023-04-15T02:59:42;7.60;99.90
2459;DHT22;1241;50.920;6.936;2023-04-15T03:02:07;7.50;99.90
2459;DHT22;1241;50.920;6.936;2023-04-15T03:04:33;7.50;99.90
2459;DHT22;1241;50.920;6.936;2023-04-15T03:07:00;7.50;99.90
2459;DHT22;1241;50.920;6.936;2023-04-15T03:09:26;7.50;99.90
2459;DHT22;1241;50.920;6.936;2023-04-15T03:11:53;7.40;99.90
2459;DHT22;1241;50.920;6.936;2023-04-15T03:14:19;7.30;99.90
2459;DHT22;1241;50.920;6.936;2023-04-15T03:16:46;7.20;99.90
2459;DHT22;1241;50.920;6.936;2023-04-15T03:19:15;7.20;99.90
2459;DHT22;1241;50.920;6.936;2023-04-15T03:21:42;7.10;99.90
2459;DHT22;1241;50.920;6.936;2023-04-15T03:24:08;7.20;99.90
2459;DHT22;1241;50.920;6.936;2023-04-15T03:26:33;7.10;99.90
2459;DHT22;1241;50.920;6.936;2023-04-15T03:29:08;7.20;99.90
2459;DHT22;1241;50.920;6.936;2023-04-15T03:31:34;7.20;99.90
2459;DHT22;1241;50.920;6.936;2023-04-15T03:34:00;7.20;99.90
2459;DHT22;1241;50.920;6.936;2023-04-15T03:36:28;7.30;99.90
2459;DHT22;1241;50.920;6.936;2023-04-15T03:38:54;7.30;99.90
2459;DHT22;1241;50.920;6.936;2023-04-15T03:41:21;7.20;99.90
2459;DHT22;1241;50.920;6.936;2023-04-15T03:43:47;7.10;99.90
2459;DHT22;1241;50.920;6.936;2023-04-15T03:46:12;7.10;99.90
2459;DHT22;1241;50.920;6.936;2023-04-15T03:48:38;7.10;99.90
2459;DHT22;1241;50.920;6.936;2023-04-15T03:51:03;7.10;99.90
2459;DHT22;1241;50.920;6.936;2023-04-15T03:53:29;7.10;99.90
2459;DHT22;1241;50.920;6.936;2023-04-15T03:55:55;7.10;99.90
2459;DHT22;1241;50.920;6.936;2023-04-15T03:58:21;7.10;99.90
2459;DHT22;1241;50.920;6.936;2023-04-15T04:00:46;7.10;99.90
2459;DHT22;1241;50.920;6.936;2023-04-15T04:03:12;7.10;99.90
2459;DHT22;1241;50.920;6.936;2023-04-15T04:05:38;7.00;99.90
2459;DHT22;1241;50.920;6.936;2023-04-15T04:08:06;7.00;99.90
2459;DHT22;1241;50.920;6.936;2023-04-15T04:10:31;7.10;99.90
2459;DHT22;1241;50.920;6.936;2023-04-15T04:12:57;7.10;99.90
2459;DHT22;1241;50.920;6.936;2023-04-15T04:15:23;7.10;99.90
2459;DHT22;1241;50.920;6.936;2023-04-15T04:17:48;7.10;99.90
2459;DHT22;1241;50.920;6.936;2023-04-15T04:20:14;7.10;99.90
2459;DHT22;1241;50.920;6.936;2023-04-15T04:22:40;7.00;99.90
2459;DHT22;1241;50.920;6.936;2023-04-15T04:25:07;7.00;99.90
2459;DHT22;1241;50.920;6.936;2023-04-15T04:27:33;7.00;99.90
2459;DHT22;1241;50.920;6.936;2023-04-15T04:29:59;7.00;99.90
2459;DHT22;1241;50.920;6.936;2023-04-15T04:32:26;7.10;99.90
2459;DHT22;1241;50.920;6.936;2023-04-15T04:34:51;7.10;99.90
2459;DHT22;1241;50.920;6.936;2023-04-15T04:37:17;7.10;99.90
2459;DHT22;1241;50.920;6.936;2023-04-15T04:39:44;7.10;99.90
2459;DHT22;1241;50.920;6.936;2023-04-15T04:42:10;7.10;99.90
2459;DHT22;1241;50.920;6.936;2023-04-15T04:44:35;7.00;99.90
2459;DHT22;1241;50.920;6.936;2023-04-15T04:47:01;7.00;99.90
2459;DHT22;1241;50.920;6.936;2023-04-15T04:49:27;7.10;99.90
2459;DHT22;1241;50.920;6.936;2023-04-15T04:51:53;7.00;99.90
2459;DHT22;1241;50.920;6.936;2023-04-15T04:54:18;7.00;99.90
2459;DHT22;1241;50.920;6.936;2023-04-15T04:56:45;7.00;99.90
2459;DHT22;1241;50.920;6.936;2023-04-15T04:59:11;7.00;99.90
2459;DHT22;1241;50.920;6.936;2023-04-15T05:01:37;7.00;99.90
2459;DHT22;1241;50.920;6.936;2023-04-15T05:04:03;7.10;99.90
2459;DHT22;1241;50.920;6.936;2023-04-15T05:06:29;7.10;99.90
2459;DHT22;1241;50.920;6.936;2023-04-15T05:08:55;7.10;99.90
2459;DHT22;1241;50.920;6.936;2023-04-15T05:11:21;7.20;99.90
2459;DHT22;1241;50.920;6.936;2023-04-15T05:13:46;7.20;99.90
2459;DHT22;1241;50.920;6.936;2023-04-15T05:16:12;7.20;99.90
2459;DHT22;1241;50.920;6.936;2023-04-15T05:18:38;7.30;99.90
2459;DHT22;1241;50.920;6.936;2023-04-15T05:21:04;7.30;99.90
2459;DHT22;1241;50.920;6.936;2023-04-15T05:23:29;7.40;99.90
2459;DHT22;1241;50.920;6.936;2023-04-15T05:25:55;7.50;99.90
2459;DHT22;1241;50.920;6.936;2023-04-15T05:28:21;7.60;99.90
2459;DHT22;1241;50.920;6.936;2023-04-15T05:30:47;7.70;99.90
2459;DHT22;1241;50.920;6.936;2023-04-15T05:33:12;7.90;99.90
2459;DHT22;1241;50.920;6.936;2023-04-15T05:35:38;8.20;99.90
2459;DHT22;1241;50.920;6.936;2023-04-15T05:38:04;8.40;99.90
2459;DHT22;1241;50.920;6.936;2023-04-15T05:40:30;8.60;99.90
2459;DHT22;1241;50.920;6.936;2023-04-15T05:42:56;8.80;99.90
2459;DHT22;1241;50.920;6.936;2023-04-15T05:45:21;8.40;99.90
2459;DHT22;1241;50.920;6.936;2023-04-15T05:47:47;8.60;99.90
2459;DHT22;1241;50.920;6.936;2023-04-15T05:50:15;8.80;99.90
2459;DHT22;1241;50.920;6.936;2023-04-15T05:52:41;9.00;99.90
2459;DHT22;1241;50.920;6.936;2023-04-15T05:55:07;9.20;99.90
2459;DHT22;1241;50.920;6.936;2023-04-15T05:57:33;9.50;99.90
2459;DHT22;1241;50.920;6.936;2023-04-15T05:59:58;9.90;99.90
2459;DHT22;1241;50.920;6.936;2023-04-15T06:02:24;10.20;99.90
2459;DHT22;1241;50.920;6.936;2023-04-15T06:04:50;10.50;99.90
2459;DHT22;1241;50.920;6.936;2023-04-15T06:07:16;10.70;99.90
2459;DHT22;1241;50.920;6.936;2023-04-15T06:09:42;11.00;99.90
2459;DHT22;1241;50.920;6.936;2023-04-15T06:12:08;11.20;99.90
2459;DHT22;1241;50.920;6.936;2023-04-15T06:14:39;11.40;99.90
2459;DHT22;1241;50.920;6.936;2023-04-15T06:17:05;11.70;99.90
2459;DHT22;1241;50.920;6.936;2023-04-15T06:19:31;11.80;99.90
2459;DHT22;1241;50.920;6.936;2023-04-15T06:21:57;11.60;99.90
2459;DHT22;1241;50.920;6.936;2023-04-15T06:24:23;11.70;99.90
2459;DHT22;1241;50.920;6.936;2023-04-15T06:26:49;11.80;99.90
2459;DHT22;1241;50.920;6.936;2023-04-15T06:29:15;11.80;99.90
2459;DHT22;1241;50.920;6.936;2023-04-15T06:31:41;12.00;99.90
2459;DHT22;1241;50.920;6.936;2023-04-15T06:34:06;12.10;99.90
2459;DHT22;1241;50.920;6.936;2023-04-15T06:36:32;12.10;99.90
2459;DHT22;1241;50.920;6.936;2023-04-15T06:38:58;12.30;99.90
2459;DHT22;1241;50.920;6.936;2023-04-15T06:41:24;12.30;99.90
2459;DHT22;1241;50.920;6.936;2023-04-15T06:43:50;12.40;99.90
2459;DHT22;1241;50.920;6.936;2023-04-15T06:46:15;12.60;99.90
2459;DHT22;1241;50.920;6.936;2023-04-15T06:48:41;12.70;99.90
2459;DHT22;1241;50.920;6.936;2023-04-15T06:51:07;12.90;99.90
2459;DHT22;1241;50.920;6.936;2023-04-15T06:53:34;12.90;99.90
2459;DHT22;1241;50.920;6.936;2023-04-15T06:56:00;13.00;99.90
2459;DHT22;1241;50.920;6.936;2023-04-15T06:58:25;13.00;99.90
2459;DHT22;1241;50.920;6.936;2023-04-15T07:00:52;12.80;99.90
2459;DHT22;1241;50.920;6.936;2023-04-15T07:03:17;12.80;99.90
2459;DHT22;1241;50.920;6.936;2023-04-15T07:05:43;12.80;99.90
2459;DHT22;1241;50.920;6.936;2023-04-15T07:08:09;13.00;99.90
2459;DHT22;1241;50.920;6.936;2023-04-15T07:10:35;13.20;99.90
2459;DHT22;1241;50.920;6.936;2023-04-15T07:13:00;13.40;99.90
2459;DHT22;1241;50.920;6.936;2023-04-15T07:15:26;13.50;99.90
2459;DHT22;1241;50.920;6.936;2023-04-15T07:17:52;13.50;99.90
2459;DHT22;1241;50.920;6.936;2023-04-15T07:20:17;13.70;99.90
2459;DHT22;1241;50.920;6.936;2023-04-15T07:22:43;13.80;99.90
2459;DHT22;1241;50.920;6.936;2023-04-15T07:25:09;13.90;99.90
2459;DHT22;1241;50.920;6.936;2023-04-15T07:27:35;13.90;99.90
2459;DHT22;1241;50.920;6.936;2023-04-15T07:30:01;13.90;99.90
2459;DHT22;1241;50.920;6.936;2023-04-15T07:32:27;14.00;99.90
2459;DHT22;1241;50.920;6.936;2023-04-15T07:34:52;14.10;99.90
2459;DHT22;1241;50.920;6.936;2023-04-15T07:37:18;14.40;99.90
2459;DHT22;1241;50.920;6.936;2023-04-15T07:39:44;14.50;99.90
2459;DHT22;1241;50.920;6.936;2023-04-15T07:42:10;14.70;99.90
2459;DHT22;1241;50.920;6.936;2023-04-15T07:44:36;14.80;99.90
2459;DHT22;1241;50.920;6.936;2023-04-15T07:47:02;14.70;99.90
2459;DHT22;1241;50.920;6.936;2023-04-15T07:49:28;14.90;99.90
2459;DHT22;1241;50.920;6.936;2023-04-15T07:51:54;15.10;99.90
2459;DHT22;1241;50.920;6.936;2023-04-15T07:54:22;14.80;99.90
2459;DHT22;1241;50.920;6.936;2023-04-15T07:56:47;14.50;99.90
2459;DHT22;1241;50.920;6.936;2023-04-15T07:59:13;14.30;99.90
2459;DHT22;1241;50.920;6.936;2023-04-15T08:01:42;14.40;99.90
2459;DHT22;1241;50.920;6.936;2023-04-15T08:04:08;14.60;99.90
2459;DHT22;1241;50.920;6.936;2023-04-15T08:06:34;14.60;99.90
2459;DHT22;1241;50.920;6.936;2023-04-15T08:09:01;14.50;99.90
2459;DHT22;1241;50.920;6.936;2023-04-15T08:11:26;14.70;99.90
2459;DHT22;1241;50.920;6.936;2023-04-15T08:13:53;15.00;99.90
2459;DHT22;1241;50.920;6.936;2023-04-15T08:16:20;15.40;99.90
2459;DHT22;1241;50.920;6.936;2023-04-15T08:18:51;15.60;99.90
2459;DHT22;1241;50.920;6.936;2023-04-15T08:21:18;15.70;99.90
2459;DHT22;1241;50.920;6.936;2023-04-15T08:23:45;15.80;99.90
2459;DHT22;1241;50.920;6.936;2023-04-15T08:26:11;16.00;99.90
2459;DHT22;1241;50.920;6.936;2023-04-15T08:28:38;16.00;99.90
2459;DHT22;1241;50.920;6.936;2023-04-15T08:31:04;16.00;99.90
2459;DHT22;1241;50.920;6.936;2023-04-15T08:33:30;16.10;99.90
2459;DHT22;1241;50.920;6.936;2023-04-15T08:35:55;15.70;99.90
2459;DHT22;1241;50.920;6.936;2023-04-15T08:38:22;15.40;99.90
2459;DHT22;1241;50.920;6.936;2023-04-15T08:40:48;15.30;99.90
2459;DHT22;1241;50.920;6.936;2023-04-15T08:43:21;15.10;99.90
2459;DHT22;1241;50.920;6.936;2023-04-15T08:45:53;14.70;99.90
2459;DHT22;1241;50.920;6.936;2023-04-15T08:48:20;14.40;99.90
2459;DHT22;1241;50.920;6.936;2023-04-15T08:50:47;14.20;99.90
2459;DHT22;1241;50.920;6.936;2023-04-15T08:53:14;14.40;99.90
2459;DHT22;1241;50.920;6.936;2023-04-15T08:55:44;14.20;99.90
2459;DHT22;1241;50.920;6.936;2023-04-15T08:58:12;14.00;99.90
2459;DHT22;1241;50.920;6.936;2023-04-15T09:00:39;14.20;99.90
2459;DHT22;1241;50.920;6.936;2023-04-15T09:03:05;14.00;99.90
2459;DHT22;1241;50.920;6.936;2023-04-15T09:05:32;13.80;99.90
2459;DHT22;1241;50.920;6.936;2023-04-15T09:07:59;13.60;99.90
2459;DHT22;1241;50.920;6.936;2023-04-15T09:10:24;13.80;99.90
2459;DHT22;1241;50.920;6.936;2023-04-15T09:12:50;14.10;99.90
2459;DHT22;1241;50.920;6.936;2023-04-15T09:15:16;14.40;99.90
2459;DHT22;1241;50.920;6.936;2023-04-15T09:17:45;14.80;99.90
2459;DHT22;1241;50.920;6.936;2023-04-15T09:20:16;15.00;99.90
2459;DHT22;1241;50.920;6.936;2023-04-15T09:22:46;15.00;99.90
2459;DHT22;1241;50.920;6.936;2023-04-15T09:27:48;14.70;99.90
2459;DHT22;1241;50.920;6.936;2023-04-15T09:30:14;14.40;99.90
2459;DHT22;1241;50.920;6.936;2023-04-15T09:32:52;14.20;99.90
2459;DHT22;1241;50.920;6.936;2023-04-15T09:35:19;14.30;99.90
2459;DHT22;1241;50.920;6.936;2023-04-15T09:37:46;14.10;99.90
2459;DHT22;1241;50.920;6.936;2023-04-15T09:40:12;14.10;99.90
2459;DHT22;1241;50.920;6.936;2023-04-15T09:42:54;14.10;99.90
2459;DHT22;1241;50.920;6.936;2023-04-15T09:45:21;14.30;99.90
2459;DHT22;1241;50.920;6.936;2023-04-15T09:47:47;14.30;99.90
2459;DHT22;1241;50.920;6.936;2023-04-15T09:50:13;14.40;99.90
2459;DHT22;1241;50.920;6.936;2023-04-15T09:52:43;14.50;99.90
2459;DHT22;1241;50.920;6.936;2023-04-15T09:55:10;14.60;99.90
2459;DHT22;1241;50.920;6.936;2023-04-15T09:57:38;14.80;99.90
2459;DHT22;1241;50.920;6.936;2023-04-15T10:00:07;14.90;99.90
2459;DHT22;1241;50.920;6.936;2023-04-15T10:02:34;14.60;99.90
2459;DHT22;1241;50.920;6.936;2023-04-15T10:05:01;14.40;99.90
2459;DHT22;1241;50.920;6.936;2023-04-15T10:07:27;14.30;99.90
2459;DHT22;1241;50.920;6.936;2023-04-15T10:09:54;14.50;99.90
2459;DHT22;1241;50.920;6.936;2023-04-15T10:12:21;14.50;99.90
2459;DHT22;1241;50.920;6.936;2023-04-15T10:14:51;14.50;99.90
2459;DHT22;1241;50.920;6.936;2023-04-15T10:17:17;14.50;99.90
2459;DHT22;1241;50.920;6.936;2023-04-15T10:19:47;14.20;99.90
2459;DHT22;1241;50.920;6.936;2023-04-15T10:22:14;14.10;99.90
2459;DHT22;1241;50.920;6.936;2023-04-15T10:24:40;14.00;99.90
2459;DHT22;1241;50.920;6.936;2023-04-15T10:27:07;13.90;99.90
2459;DHT22;1241;50.920;6.936;2023-04-15T10:29:33;13.90;99.90
2459;DHT22;1241;50.920;6.936;2023-04-15T10:32:00;14.00;99.90
2459;DHT22;1241;50.920;6.936;2023-04-15T10:34:27;14.00;99.90
2459;DHT22;1241;50.920;6.936;2023-04-15T10:37:03;14.10;99.90
2459;DHT22;1241;50.920;6.936;2023-04-15T10:39:44;14.40;99.90
2459;DHT22;1241;50.920;6.936;2023-04-15T10:42:12;14.80;99.90
2459;DHT22;1241;50.920;6.936;2023-04-15T10:44:40;14.90;99.90
2459;DHT22;1241;50.920;6.936;2023-04-15T10:47:13;15.10;99.90
2459;DHT22;1241;50.920;6.936;2023-04-15T10:49:44;15.10;99.90
2459;DHT22;1241;50.920;6.936;2023-04-15T10:52:10;14.90;99.90
2459;DHT22;1241;50.920;6.936;2023-04-15T10:54:36;14.60;99.90
2459;DHT22;1241;50.920;6.936;2023-04-15T11:02:46;14.50;99.90
2459;DHT22;1241;50.920;6.936;2023-04-15T11:05:16;14.60;99.90
2459;DHT22;1241;50.920;6.936;2023-04-15T11:12:43;15.70;99.90
2459;DHT22;1241;50.920;6.936;2023-04-15T11:18:13;15.00;99.90
2459;DHT22;1241;50.920;6.936;2023-04-15T11:20:40;15.10;99.90
2459;DHT22;1241;50.920;6.936;2023-04-15T11:23:08;15.40;99.90
2459;DHT22;1241;50.920;6.936;2023-04-15T11:25:35;15.60;99.90
2459;DHT22;1241;50.920;6.936;2023-04-15T11:28:04;15.40;99.90
2459;DHT22;1241;50.920;6.936;2023-04-15T11:30:32;15.30;99.90
2459;DHT22;1241;50.920;6.936;2023-04-15T11:33:00;15.30;99.90
2459;DHT22;1241;50.920;6.936;2023-04-15T11:35:28;15.00;99.90
2459;DHT22;1241;50.920;6.936;2023-04-15T11:37:54;14.90;99.90
2459;DHT22;1241;50.920;6.936;2023-04-15T11:40:25;14.70;99.90
2459;DHT22;1241;50.920;6.936;2023-04-15T11:43:15;14.70;99.90
2459;DHT22;1241;50.920;6.936;2023-04-15T11:45:56;14.80;99.90
2459;DHT22;1241;50.920;6.936;2023-04-15T11:48:31;14.80;99.90
2459;DHT22;1241;50.920;6.936;2023-04-15T11:51:01;15.10;99.90
2459;DHT22;1241;50.920;6.936;2023-04-15T11:56:03;15.30;99.90
2459;DHT22;1241;50.920;6.936;2023-04-15T11:58:29;15.20;99.90
2459;DHT22;1241;50.920;6.936;2023-04-15T12:00:57;15.30;99.90
2459;DHT22;1241;50.920;6.936;2023-04-15T12:03:25;15.30;99.90
2459;DHT22;1241;50.920;6.936;2023-04-15T12:08:49;15.00;99.90
2459;DHT22;1241;50.920;6.936;2023-04-15T12:11:19;15.10;99.90
2459;DHT22;1241;50.920;6.936;2023-04-15T12:13:49;15.10;99.90
2459;DHT22;1241;50.920;6.936;2023-04-15T12:16:18;15.30;99.90
2459;DHT22;1241;50.920;6.936;2023-04-15T12:18:50;15.00;99.90
2459;DHT22;1241;50.920;6.936;2023-04-15T12:21:19;14.70;99.90
2459;DHT22;1241;50.920;6.936;2023-04-15T12:23:53;14.50;99.90
2459;DHT22;1241;50.920;6.936;2023-04-15T12:26:49;14.30;99.90
2459;DHT22;1241;50.920;6.936;2023-04-15T12:29:16;14.20;99.90
2459;DHT22;1241;50.920;6.936;2023-04-15T12:31:53;14.00;99.90
2459;DHT22;1241;50.920;6.936;2023-04-15T12:36:53;13.90;99.90
2459;DHT22;1241;50.920;6.936;2023-04-15T12:39:25;13.70;99.90
2459;DHT22;1241;50.920;6.936;2023-04-15T12:41:53;13.60;99.90
2459;DHT22;1241;50.920;6.936;2023-04-15T12:44:20;13.50;99.90
2459;DHT22;1241;50.920;6.936;2023-04-15T12:46:46;13.40;99.90
2459;DHT22;1241;50.920;6.936;2023-04-15T12:49:12;13.30;99.90
2459;DHT22;1241;50.920;6.936;2023-04-15T12:51:41;13.40;99.90
2459;DHT22;1241;50.920;6.936;2023-04-15T12:54:06;13.50;99.90
2459;DHT22;1241;50.920;6.936;2023-04-15T12:56:32;13.50;99.90
2459;DHT22;1241;50.920;6.936;2023-04-15T12:58:58;13.40;99.90
2459;DHT22;1241;50.920;6.936;2023-04-15T13:01:24;13.40;99.90
2459;DHT22;1241;50.920;6.936;2023-04-15T13:03:49;13.20;99.90
2459;DHT22;1241;50.920;6.936;2023-04-15T13:06:16;13.00;99.90
2459;DHT22;1241;50.920;6.936;2023-04-15T13:08:42;12.90;99.90
2459;DHT22;1241;50.920;6.936;2023-04-15T13:11:08;12.90;99.90
2459;DHT22;1241;50.920;6.936;2023-04-15T13:13:33;12.60;99.90
2459;DHT22;1241;50.920;6.936;2023-04-15T13:15:59;12.60;99.90
2459;DHT22;1241;50.920;6.936;2023-04-15T13:18:25;12.70;99.90
2459;DHT22;1241;50.920;6.936;2023-04-15T13:20:51;12.60;99.90
2459;DHT22;1241;50.920;6.936;2023-04-15T13:23:16;12.60;99.90
2459;DHT22;1241;50.920;6.936;2023-04-15T13:25:42;12.60;99.90
2459;DHT22;1241;50.920;6.936;2023-04-15T13:28:10;12.60;99.90
2459;DHT22;1241;50.920;6.936;2023-04-15T13:30:37;12.70;99.90
2459;DHT22;1241;50.920;6.936;2023-04-15T13:33:03;12.70;99.90
2459;DHT22;1241;50.920;6.936;2023-04-15T13:35:30;12.80;99.90
2459;DHT22;1241;50.920;6.936;2023-04-15T13:37:56;12.50;99.90
2459;DHT22;1241;50.920;6.936;2023-04-15T13:40:22;12.30;99.90
2459;DHT22;1241;50.920;6.936;2023-04-15T13:42:47;12.30;99.90
2459;DHT22;1241;50.920;6.936;2023-04-15T13:45:13;12.30;99.90
2459;DHT22;1241;50.920;6.936;2023-04-15T13:47:39;12.30;99.90
2459;DHT22;1241;50.920;6.936;2023-04-15T13:50:05;12.10;99.90
2459;DHT22;1241;50.920;6.936;2023-04-15T13:52:31;12.00;99.90
2459;DHT22;1241;50.920;6.936;2023-04-15T13:54:57;12.00;99.90
2459;DHT22;1241;50.920;6.936;2023-04-15T13:57:22;12.00;99.90
2459;DHT22;1241;50.920;6.936;2023-04-15T13:59:48;12.00;99.90
2459;DHT22;1241;50.920;6.936;2023-04-15T14:02:14;12.00;99.90
2459;DHT22;1241;50.920;6.936;2023-04-15T14:04:40;12.10;99.90
2459;DHT22;1241;50.920;6.936;2023-04-15T14:07:06;12.20;99.90
2459;DHT22;1241;50.920;6.936;2023-04-15T14:09:32;12.30;99.90
2459;DHT22;1241;50.920;6.936;2023-04-15T14:11:57;12.30;99.90
2459;DHT22;1241;50.920;6.936;2023-04-15T14:14:24;12.30;99.90
2459;DHT22;1241;50.920;6.936;2023-04-15T14:16:50;12.30;99.90
2459;DHT22;1241;50.920;6.936;2023-04-15T14:19:16;12.40;99.90
2459;DHT22;1241;50.920;6.936;2023-04-15T14:21:41;12.40;99.90
2459;DHT22;1241;50.920;6.936;2023-04-15T14:24:07;12.30;99.90
2459;DHT22;1241;50.920;6.936;2023-04-15T14:26:34;12.30;99.90
2459;DHT22;1241;50.920;6.936;2023-04-15T14:28:59;12.40;99.90
2459;DHT22;1241;50.920;6.936;2023-04-15T14:31:25;12.50;99.90
2459;DHT22;1241;50.920;6.936;2023-04-15T14:33:51;12.70;99.90
2459;DHT22;1241;50.920;6.936;2023-04-15T14:36:16;12.90;99.90
2459;DHT22;1241;50.920;6.936;2023-04-15T14:38:42;13.10;99.90
2459;DHT22;1241;50.920;6.936;2023-04-15T14:41:08;13.40;99.90
2459;DHT22;1241;50.920;6.936;2023-04-15T14:43:35;13.40;99.90
2459;DHT22;1241;50.920;6.936;2023-04-15T14:46:01;13.30;99.90
2459;DHT22;1241;50.920;6.936;2023-04-15T14:48:27;13.40;99.90
2459;DHT22;1241;50.920;6.936;2023-04-15T14:50:53;13.40;99.90
2459;DHT22;1241;50.920;6.936;2023-04-15T14:53:18;13.50;99.90
2459;DHT22;1241;50.920;6.936;2023-04-15T14:55:44;13.50;99.90
2459;DHT22;1241;50.920;6.936;2023-04-15T14:58:10;13.40;99.90
2459;DHT22;1241;50.920;6.936;2023-04-15T15:00:38;13.20;99.90
2459;DHT22;1241;50.920;6.936;2023-04-15T15:03:08;13.20;99.90
2459;DHT22;1241;50.920;6.936;2023-04-15T15:05:44;13.30;99.90
2459;DHT22;1241;50.920;6.936;2023-04-15T15:08:11;13.20;99.90
2459;DHT22;1241;50.920;6.936;2023-04-15T15:10:38;13.10;99.90
2459;DHT22;1241;50.920;6.936;2023-04-15T15:13:05;12.90;99.90
2459;DHT22;1241;50.920;6.936;2023-04-15T15:15:32;13.00;99.90
2459;DHT22;1241;50.920;6.936;2023-04-15T15:17:58;12.90;99.90
2459;DHT22;1241;50.920;6.936;2023-04-15T15:20:24;12.90;99.90
2459;DHT22;1241;50.920;6.936;2023-04-15T15:22:50;12.70;99.90
2459;DHT22;1241;50.920;6.936;2023-04-15T15:25:16;12.60;99.90
2459;DHT22;1241;50.920;6.936;2023-04-15T15:27:42;12.50;99.90
2459;DHT22;1241;50.920;6.936;2023-04-15T15:30:09;12.50;99.90
2459;DHT22;1241;50.920;6.936;2023-04-15T15:32:36;12.50;99.90
2459;DHT22;1241;50.920;6.936;2023-04-15T15:35:02;12.40;99.90
2459;DHT22;1241;50.920;6.936;2023-04-15T15:37:29;12.40;99.90
2459;DHT22;1241;50.920;6.936;2023-04-15T15:39:55;12.40;99.90
2459;DHT22;1241;50.920;6.936;2023-04-15T15:42:22;12.50;99.90
2459;DHT22;1241;50.920;6.936;2023-04-15T15:44:48;12.50;99.90
2459;DHT22;1241;50.920;6.936;2023-04-15T15:47:15;12.40;99.90
2459;DHT22;1241;50.920;6.936;2023-04-15T15:49:41;12.50;99.90
2459;DHT22;1241;50.920;6.936;2023-04-15T15:52:06;12.50;99.90
2459;DHT22;1241;50.920;6.936;2023-04-15T15:54:33;12.70;99.90
2459;DHT22;1241;50.920;6.936;2023-04-15T15:56:59;12.80;99.90
2459;DHT22;1241;50.920;6.936;2023-04-15T15:59:26;12.90;99.90
2459;DHT22;1241;50.920;6.936;2023-04-15T16:01:51;12.80;99.90
2459;DHT22;1241;50.920;6.936;2023-04-15T16:04:17;12.70;99.90
2459;DHT22;1241;50.920;6.936;2023-04-15T16:06:43;12.70;99.90
2459;DHT22;1241;50.920;6.936;2023-04-15T16:09:12;12.60;99.90
2459;DHT22;1241;50.920;6.936;2023-04-15T16:11:38;12.40;99.90
2459;DHT22;1241;50.920;6.936;2023-04-15T16:14:04;12.10;99.90
2459;DHT22;1241;50.920;6.936;2023-04-15T16:16:29;11.90;99.90
2459;DHT22;1241;50.920;6.936;2023-04-15T16:18:56;11.90;99.90
2459;DHT22;1241;50.920;6.936;2023-04-15T16:21:22;11.80;99.90
2459;DHT22;1241;50.920;6.936;2023-04-15T16:23:49;11.70;99.90
2459;DHT22;1241;50.920;6.936;2023-04-15T16:26:15;11.60;99.90
2459;DHT22;1241;50.920;6.936;2023-04-15T16:28:41;11.60;99.90